createdAt,value
2018-02-13T00:01:01.810Z,0.30
2018-02-13T00:02:05.012Z,0.40
2018-02-13T00:03:08.225Z,0.40
2018-02-13T00:04:12.211Z,0.30
2018-02-13T00:05:15.410Z,0.40
2018-02-13T00:06:18.608Z,0.40
2018-02-13T00:07:21.813Z,0.30
2018-02-13T00:08:25.017Z,0.30
2018-02-13T00:09:28.261Z,0.20
2018-02-13T00:10:31.585Z,0.20
2018-02-13T00:11:34.819Z,0.10
2018-02-13T00:12:38.150Z,0.20
2018-02-13T00:13:41.388Z,0.30
2018-02-13T00:14:44.630Z,0.20
2018-02-13T00:15:47.833Z,0.20
2018-02-13T00:16:51.084Z,0.20
2018-02-13T00:17:54.299Z,0.20
2018-02-13T00:18:57.525Z,0.10
2018-02-13T00:20:00.735Z,0.20
2018-02-13T00:21:04.008Z,0.30
2018-02-13T00:22:07.995Z,0.40
2018-02-13T00:23:11.219Z,0.40
2018-02-13T00:24:14.431Z,0.40
2018-02-13T00:25:17.644Z,0.50
2018-02-13T00:26:20.888Z,0.40
2018-02-13T00:27:24.087Z,0.30
2018-02-13T00:28:27.296Z,0.30
2018-02-13T00:29:30.500Z,0.30
2018-02-13T00:30:33.709Z,0.30
2018-02-13T00:31:36.916Z,0.30
2018-02-13T00:32:40.136Z,0.30
2018-02-13T00:33:44.136Z,0.30
2018-02-13T00:34:48.127Z,0.30
2018-02-13T00:35:51.320Z,0.30
2018-02-13T00:36:55.288Z,0.30
2018-02-13T00:37:58.490Z,0.30
2018-02-13T00:39:01.683Z,0.30
2018-02-13T00:40:05.668Z,0.40
2018-02-13T00:41:08.896Z,0.40
2018-02-13T00:42:12.182Z,0.40
2018-02-13T00:43:15.373Z,0.40
2018-02-13T00:44:18.588Z,0.40
2018-02-13T00:45:21.801Z,0.40
2018-02-13T00:46:25.759Z,0.50
2018-02-13T00:47:29.747Z,0.60
2018-02-13T00:48:32.956Z,0.60
2018-02-13T00:49:36.169Z,0.50
2018-02-13T00:50:39.383Z,0.30
2018-02-13T00:51:42.590Z,0.10
2018-02-13T00:52:45.815Z,0.10
2018-02-13T00:53:49.790Z,0.10
2018-02-13T00:54:52.999Z,0.10
2018-02-13T00:55:56.968Z,0.00
2018-02-13T00:57:00.164Z,0.00
2018-02-13T00:58:04.171Z,0.00
2018-02-13T00:59:08.200Z,0.10
2018-02-13T01:00:11.455Z,0.00
2018-02-13T01:01:15.746Z,0.00
2018-02-13T01:02:18.964Z,0.00
2018-02-13T01:03:22.171Z,0.00
2018-02-13T01:04:25.420Z,0.00
2018-02-13T01:05:28.652Z,0.10
2018-02-13T01:06:31.867Z,0.10
2018-02-13T01:07:35.849Z,0.10
2018-02-13T01:08:39.118Z,0.10
2018-02-13T01:09:42.301Z,0.10
2018-02-13T01:10:45.501Z,0.10
2018-02-13T01:11:48.715Z,0.00
2018-02-13T01:12:52.688Z,0.00
2018-02-13T01:13:55.888Z,0.00
2018-02-13T01:14:59.873Z,0.00
2018-02-13T01:16:03.089Z,0.00
2018-02-13T01:17:06.320Z,0.00
2018-02-13T01:18:09.526Z,-0.10
2018-02-13T01:19:13.497Z,0.00
2018-02-13T01:20:16.716Z,-0.10
2018-02-13T01:21:20.699Z,-0.10
2018-02-13T01:22:23.917Z,-0.10
2018-02-13T01:23:27.145Z,-0.10
2018-02-13T01:24:30.464Z,0.00
2018-02-13T01:25:34.462Z,-0.10
2018-02-13T01:26:38.436Z,-0.10
2018-02-13T01:27:41.666Z,-0.10
2018-02-13T01:28:44.875Z,0.00
2018-02-13T01:29:48.080Z,0.00
2018-02-13T01:30:51.312Z,0.10
2018-02-13T01:31:54.536Z,0.10
2018-02-13T01:32:57.736Z,0.20
2018-02-13T01:34:00.953Z,0.20
2018-02-13T01:35:04.209Z,0.20
2018-02-13T01:36:07.417Z,0.30
2018-02-13T01:37:11.386Z,0.30
2018-02-13T01:38:14.609Z,0.30
2018-02-13T01:39:17.830Z,0.30
2018-02-13T01:40:21.067Z,0.30
2018-02-13T01:41:24.279Z,0.30
2018-02-13T01:42:27.503Z,0.30
2018-02-13T01:43:30.707Z,0.30
2018-02-13T01:44:34.680Z,0.30
2018-02-13T01:45:37.894Z,0.20
2018-02-13T01:46:41.865Z,0.00
2018-02-13T01:47:45.084Z,0.00
2018-02-13T01:48:49.048Z,0.10
2018-02-13T01:49:53.034Z,0.00
2018-02-13T01:50:56.256Z,0.00
2018-02-13T01:52:00.220Z,0.20
2018-02-13T01:53:03.444Z,0.20
2018-02-13T01:54:06.670Z,0.20
2018-02-13T01:55:09.881Z,0.10
2018-02-13T01:56:14.581Z,0.20
2018-02-13T01:57:17.778Z,0.20
2018-02-13T01:58:21.875Z,0.10
2018-02-13T01:59:25.077Z,0.10
2018-02-13T02:00:29.049Z,0.10
2018-02-13T02:01:32.270Z,0.10
2018-02-13T02:02:36.285Z,0.00
2018-02-13T02:03:39.549Z,0.00
2018-02-13T02:04:43.516Z,0.10
2018-02-13T02:05:46.750Z,0.10
2018-02-13T02:06:49.969Z,0.10
2018-02-13T02:07:53.187Z,0.00
2018-02-13T02:08:56.680Z,0.00
2018-02-13T02:10:00.656Z,0.20
2018-02-13T02:11:03.881Z,0.20
2018-02-13T02:12:07.097Z,0.20
2018-02-13T02:13:10.292Z,0.20
2018-02-13T02:14:13.512Z,0.20
2018-02-13T02:15:17.564Z,0.20
2018-02-13T02:16:20.797Z,0.20
2018-02-13T02:17:24.054Z,0.20
2018-02-13T02:18:27.396Z,0.10
2018-02-13T02:19:30.674Z,0.10
2018-02-13T02:20:33.873Z,0.00
2018-02-13T02:21:37.078Z,0.00
2018-02-13T02:22:40.301Z,0.00
2018-02-13T02:23:44.273Z,0.00
2018-02-13T02:24:47.485Z,0.00
2018-02-13T02:25:51.486Z,-0.10
2018-02-13T02:26:55.476Z,-0.10
2018-02-13T02:27:59.461Z,-0.20
2018-02-13T02:29:04.193Z,-0.20
2018-02-13T02:30:08.173Z,-0.30
2018-02-13T02:31:11.413Z,-0.30
2018-02-13T02:32:14.656Z,-0.20
2018-02-13T02:33:17.881Z,-0.20
2018-02-13T02:34:21.258Z,-0.30
2018-02-13T02:35:24.439Z,-0.20
2018-02-13T02:36:27.665Z,-0.20
2018-02-13T02:37:31.737Z,-0.20
2018-02-13T02:38:34.965Z,-0.20
2018-02-13T02:39:38.175Z,-0.20
2018-02-13T02:40:41.445Z,-0.20
2018-02-13T02:41:44.677Z,-0.30
2018-02-13T02:43:00.408Z,-0.20
2018-02-13T02:44:03.629Z,-0.20
2018-02-13T02:45:07.620Z,-0.10
2018-02-13T02:46:11.608Z,-0.10
2018-02-13T02:47:14.826Z,-0.10
2018-02-13T02:48:18.045Z,-0.20
2018-02-13T02:49:21.261Z,-0.20
2018-02-13T02:50:25.270Z,-0.10
2018-02-13T02:51:29.255Z,-0.20
2018-02-13T02:52:32.487Z,-0.20
2018-02-13T02:53:35.713Z,-0.30
2018-02-13T02:54:39.034Z,-0.20
2018-02-13T02:55:42.262Z,-0.20
2018-02-13T02:56:45.487Z,-0.20
2018-02-13T02:57:49.502Z,-0.30
2018-02-13T02:58:52.736Z,-0.30
2018-02-13T02:59:55.950Z,-0.30
2018-02-13T03:00:59.946Z,-0.30
2018-02-13T03:02:03.159Z,-0.30
2018-02-13T03:03:06.398Z,-0.30
2018-02-13T03:04:09.620Z,-0.40
2018-02-13T03:05:12.876Z,-0.30
2018-02-13T03:06:16.102Z,-0.40
2018-02-13T03:07:19.333Z,-0.40
2018-02-13T03:08:23.452Z,-0.40
2018-02-13T03:09:27.457Z,-0.50
2018-02-13T03:10:31.468Z,-0.50
2018-02-13T03:11:35.459Z,-0.50
2018-02-13T03:12:39.458Z,-0.50
2018-02-13T03:13:43.466Z,-0.50
2018-02-13T03:14:47.460Z,-0.50
2018-02-13T03:15:51.456Z,-0.50
2018-02-13T03:16:54.713Z,-0.50
2018-02-13T03:17:57.937Z,-0.40
2018-02-13T03:19:01.148Z,-0.40
2018-02-13T03:20:04.387Z,-0.30
2018-02-13T03:21:08.379Z,-0.30
2018-02-13T03:22:11.629Z,-0.40
2018-02-13T03:23:14.860Z,-0.30
2018-02-13T03:24:18.849Z,-0.40
2018-02-13T03:25:22.868Z,-0.50
2018-02-13T03:26:26.859Z,-0.50
2018-02-13T03:27:30.907Z,-0.40
2018-02-13T03:28:34.154Z,-0.40
2018-02-13T03:29:37.377Z,-0.50
2018-02-13T03:30:40.607Z,-0.50
2018-02-13T03:31:44.584Z,-0.40
2018-02-13T03:32:47.929Z,-0.40
2018-02-13T03:33:51.139Z,-0.40
2018-02-13T03:34:54.357Z,-0.40
2018-02-13T03:35:58.358Z,-0.60
2018-02-13T03:37:02.352Z,-0.60
2018-02-13T03:38:05.561Z,-0.60
2018-02-13T03:39:08.792Z,-0.60
2018-02-13T03:40:12.120Z,-0.60
2018-02-13T03:41:15.370Z,-0.60
2018-02-13T03:42:18.588Z,-0.60
2018-02-13T03:43:21.824Z,-0.50
2018-02-13T03:44:25.055Z,-0.40
2018-02-13T03:45:29.049Z,-0.40
2018-02-13T03:46:33.083Z,-0.30
2018-02-13T03:47:37.044Z,-0.40
2018-02-13T03:48:41.063Z,-0.40
2018-02-13T03:49:44.281Z,-0.40
2018-02-13T03:50:47.514Z,-0.40
2018-02-13T03:51:51.512Z,-0.40
2018-02-13T03:52:55.504Z,-0.40
2018-02-13T03:53:58.727Z,-0.40
2018-02-13T03:55:01.972Z,-0.40
2018-02-13T03:56:06.068Z,-0.40
2018-02-13T03:57:10.101Z,-0.30
2018-02-13T03:58:14.217Z,-0.40
2018-02-13T03:59:18.179Z,-0.40
2018-02-13T04:00:21.550Z,-0.50
2018-02-13T04:01:24.898Z,-0.40
2018-02-13T04:02:28.104Z,-0.40
2018-02-13T04:03:32.182Z,-0.40
2018-02-13T04:04:36.082Z,-0.50
2018-02-13T04:05:39.291Z,-0.50
2018-02-13T04:06:42.517Z,-0.50
2018-02-13T04:07:45.768Z,-0.50
2018-02-13T04:08:48.998Z,-0.50
2018-02-13T04:09:52.223Z,-0.50
2018-02-13T04:10:55.457Z,-0.50
2018-02-13T04:11:58.686Z,-0.40
2018-02-13T04:13:01.930Z,-0.40
2018-02-13T04:14:05.175Z,-0.40
2018-02-13T04:15:09.176Z,-0.40
2018-02-13T04:16:13.468Z,-0.50
2018-02-13T04:17:16.759Z,-0.40
2018-02-13T04:18:19.993Z,-0.40
2018-02-13T04:19:23.221Z,-0.50
2018-02-13T04:20:26.456Z,-0.50
2018-02-13T04:21:29.695Z,-0.50
2018-02-13T04:22:33.011Z,-0.40
2018-02-13T04:23:36.236Z,-0.50
2018-02-13T04:24:39.504Z,-0.40
2018-02-13T04:25:42.761Z,-0.50
2018-02-13T04:26:45.976Z,-0.50
2018-02-13T04:27:49.212Z,-0.40
2018-02-13T04:28:53.228Z,-0.40
2018-02-13T04:29:56.559Z,-0.40
2018-02-13T04:30:59.841Z,-0.30
2018-02-13T04:32:03.075Z,-0.30
2018-02-13T04:33:06.314Z,-0.40
2018-02-13T04:34:09.551Z,-0.40
2018-02-13T04:35:12.841Z,-0.30
2018-02-13T04:36:16.086Z,-0.40
2018-02-13T04:37:19.295Z,-0.30
2018-02-13T04:38:23.365Z,-0.40
2018-02-13T04:39:27.360Z,-0.40
2018-02-13T04:40:30.597Z,-0.40
2018-02-13T04:41:33.909Z,-0.40
2018-02-13T04:42:37.141Z,-0.30
2018-02-13T04:43:41.112Z,-0.40
2018-02-13T04:44:44.331Z,-0.40
2018-02-13T04:45:47.574Z,-0.40
2018-02-13T04:46:52.301Z,-0.40
2018-02-13T04:47:55.710Z,-0.40
2018-02-13T04:48:59.000Z,-0.50
2018-02-13T04:50:02.248Z,-0.50
2018-02-13T04:51:06.252Z,-0.40
2018-02-13T04:52:10.250Z,-0.30
2018-02-13T04:53:14.264Z,-0.30
2018-02-13T04:54:17.493Z,-0.30
2018-02-13T04:55:20.737Z,-0.30
2018-02-13T04:56:24.739Z,-0.30
2018-02-13T04:57:28.738Z,-0.30
2018-02-13T04:58:32.752Z,-0.30
2018-02-13T04:59:36.019Z,-0.30
2018-02-13T05:00:40.049Z,-0.30
2018-02-13T05:02:52.741Z,-0.40
2018-02-13T05:03:55.971Z,-0.40
2018-02-13T05:04:59.199Z,-0.40
2018-02-13T05:06:03.194Z,-0.40
2018-02-13T05:07:07.213Z,-0.40
2018-02-13T05:08:10.464Z,-0.40
2018-02-13T05:09:14.463Z,-0.40
2018-02-13T05:10:17.691Z,-0.40
2018-02-13T05:11:20.901Z,-0.40
2018-02-13T05:12:24.212Z,-0.40
2018-02-13T05:13:27.463Z,-0.50
2018-02-13T05:14:30.694Z,-0.50
2018-02-13T05:15:33.924Z,-0.50
2018-02-13T05:16:37.160Z,-0.60
2018-02-13T05:17:40.393Z,-0.50
2018-02-13T05:18:43.614Z,-0.50
2018-02-13T05:19:46.842Z,-0.50
2018-02-13T05:20:50.065Z,-0.50
2018-02-13T05:21:54.081Z,-0.50
2018-02-13T05:22:57.333Z,-0.50
2018-02-13T05:24:00.576Z,-0.60
2018-02-13T05:25:03.825Z,-0.60
2018-02-13T05:26:07.856Z,-0.60
2018-02-13T05:27:11.078Z,-0.50
2018-02-13T05:28:14.319Z,-0.60
2018-02-13T05:29:17.551Z,-0.60
2018-02-13T05:30:20.906Z,-0.60
2018-02-13T05:31:24.120Z,-0.60
2018-02-13T05:32:28.113Z,-0.60
2018-02-13T05:33:32.113Z,-0.60
2018-02-13T05:34:35.348Z,-0.60
2018-02-13T05:35:38.598Z,-0.70
2018-02-13T05:36:42.589Z,-0.60
2018-02-13T05:37:46.598Z,-0.70
2018-02-13T05:38:50.588Z,-0.60
2018-02-13T05:39:54.602Z,-0.50
2018-02-13T05:40:58.617Z,-0.50
2018-02-13T05:42:01.861Z,-0.50
2018-02-13T05:43:05.132Z,-0.50
2018-02-13T05:44:08.374Z,-0.40
2018-02-13T05:45:11.617Z,-0.40
2018-02-13T05:46:14.937Z,-0.40
2018-02-13T05:47:18.188Z,-0.40
2018-02-13T05:48:21.420Z,-0.50
2018-02-13T05:49:24.642Z,-0.50
2018-02-13T05:50:27.876Z,-0.50
2018-02-13T05:51:31.140Z,-0.40
2018-02-13T05:52:34.433Z,-0.30
2018-02-13T05:53:37.649Z,-0.30
2018-02-13T05:54:40.872Z,-0.40
2018-02-13T05:55:44.870Z,-0.40
2018-02-13T05:56:48.114Z,-0.40
2018-02-13T05:57:51.349Z,-0.40
2018-02-13T05:58:55.332Z,-0.30
2018-02-13T05:59:58.573Z,-0.30
2018-02-13T06:01:01.807Z,-0.30
2018-02-13T06:02:05.808Z,-0.20
2018-02-13T06:03:09.028Z,-0.20
2018-02-13T06:04:12.255Z,-0.20
2018-02-13T06:05:15.517Z,-0.20
2018-02-13T06:06:18.733Z,-0.10
2018-02-13T06:07:22.727Z,0.00
2018-02-13T06:08:25.977Z,-0.10
2018-02-13T06:09:29.204Z,0.00
2018-02-13T06:10:33.202Z,0.20
2018-02-13T06:11:36.460Z,0.20
2018-02-13T06:12:39.732Z,0.20
2018-02-13T06:13:42.981Z,0.10
2018-02-13T06:14:47.009Z,0.10
2018-02-13T06:15:50.240Z,0.10
2018-02-13T06:16:54.229Z,0.00
2018-02-13T06:17:57.449Z,0.00
2018-02-13T06:19:00.664Z,0.00
2018-02-13T06:20:03.968Z,0.10
2018-02-13T06:21:07.153Z,0.10
2018-02-13T06:22:10.368Z,0.20
2018-02-13T06:23:14.354Z,0.20
2018-02-13T06:24:17.617Z,0.20
2018-02-13T06:25:20.797Z,0.20
2018-02-13T06:26:24.136Z,0.20
2018-02-13T06:27:27.367Z,0.10
2018-02-13T06:28:30.597Z,0.20
2018-02-13T06:29:33.851Z,0.20
2018-02-13T06:30:37.087Z,0.30
2018-02-13T06:31:40.349Z,0.30
2018-02-13T06:32:43.570Z,0.30
2018-02-13T06:33:46.781Z,0.40
2018-02-13T06:34:50.774Z,0.30
2018-02-13T06:35:54.300Z,0.30
2018-02-13T06:36:57.486Z,0.30
2018-02-13T06:38:00.724Z,0.30
2018-02-13T06:39:04.014Z,0.30
2018-02-13T06:40:07.229Z,0.30
2018-02-13T06:41:10.455Z,0.40
2018-02-13T06:42:13.662Z,0.50
2018-02-13T06:43:16.913Z,0.50
2018-02-13T06:44:20.153Z,0.60
2018-02-13T06:45:24.150Z,0.60
2018-02-13T06:46:27.434Z,0.70
2018-02-13T06:47:31.443Z,0.70
2018-02-13T06:48:34.697Z,0.70
2018-02-13T06:49:37.982Z,0.60
2018-02-13T06:50:41.198Z,0.50
2018-02-13T06:51:44.413Z,0.50
2018-02-13T06:52:47.692Z,0.50
2018-02-13T06:53:51.014Z,0.50
2018-02-13T06:54:54.246Z,0.50
2018-02-13T06:55:57.467Z,0.40
2018-02-13T06:57:02.245Z,0.30
2018-02-13T06:58:05.533Z,0.30
2018-02-13T06:59:08.737Z,0.30
2018-02-13T07:00:12.057Z,0.30
2018-02-13T07:01:15.246Z,0.30
2018-02-13T07:02:19.316Z,0.40
2018-02-13T07:03:22.652Z,0.40
2018-02-13T07:04:25.909Z,0.50
2018-02-13T07:05:29.232Z,0.60
2018-02-13T07:06:32.462Z,0.60
2018-02-13T07:07:35.794Z,0.60
2018-02-13T07:08:39.021Z,0.60
2018-02-13T07:09:42.238Z,0.50
2018-02-13T07:10:46.216Z,0.50
2018-02-13T07:11:49.506Z,0.50
2018-02-13T07:12:52.701Z,0.50
2018-02-13T07:13:55.941Z,0.50
2018-02-13T07:14:59.173Z,0.50
2018-02-13T07:16:02.441Z,0.50
2018-02-13T07:17:05.648Z,0.50
2018-02-13T07:18:08.884Z,0.50
2018-02-13T07:19:12.880Z,0.40
2018-02-13T07:20:16.878Z,0.40
2018-02-13T07:21:20.093Z,0.40
2018-02-13T07:22:23.292Z,0.50
2018-02-13T07:23:26.533Z,0.50
2018-02-13T07:24:30.531Z,0.60
2018-02-13T07:25:34.525Z,0.70
2018-02-13T07:26:37.786Z,0.60
2018-02-13T07:27:41.005Z,0.70
2018-02-13T07:28:44.989Z,0.70
2018-02-13T07:29:48.294Z,0.70
2018-02-13T07:30:51.574Z,0.70
2018-02-13T07:31:54.785Z,0.80
2018-02-13T07:32:57.997Z,0.80
2018-02-13T07:34:01.450Z,0.80
2018-02-13T07:35:04.671Z,0.80
2018-02-13T07:36:07.933Z,0.80
2018-02-13T07:37:11.703Z,0.70
2018-02-13T07:38:14.966Z,0.60
2018-02-13T07:39:19.113Z,0.60
2018-02-13T07:40:22.377Z,0.60
2018-02-13T07:41:25.650Z,0.60
2018-02-13T07:42:28.994Z,0.60
2018-02-13T07:43:32.261Z,0.70
2018-02-13T07:44:35.517Z,0.70
2018-02-13T07:45:38.996Z,0.70
2018-02-13T07:46:43.204Z,0.70
2018-02-13T07:47:46.659Z,0.70
2018-02-13T07:48:50.767Z,0.70
2018-02-13T07:49:53.962Z,0.70
2018-02-13T07:50:57.948Z,0.70
2018-02-13T07:52:01.958Z,0.70
2018-02-13T07:53:05.921Z,0.80
2018-02-13T07:54:09.151Z,0.80
2018-02-13T07:55:12.408Z,0.80
2018-02-13T07:56:15.593Z,0.80
2018-02-13T07:57:19.653Z,0.80
2018-02-13T07:58:22.818Z,0.80
2018-02-13T07:59:26.037Z,0.80
2018-02-13T08:00:29.257Z,0.80
2018-02-13T08:01:33.256Z,0.80
2018-02-13T08:02:37.240Z,0.80
2018-02-13T08:03:40.442Z,0.80
2018-02-13T08:04:44.445Z,0.90
2018-02-13T08:05:47.660Z,0.90
2018-02-13T08:06:50.974Z,0.90
2018-02-13T08:07:54.176Z,0.90
2018-02-13T08:08:57.505Z,0.90
2018-02-13T08:10:00.728Z,1.00
2018-02-13T08:11:04.707Z,1.00
2018-02-13T08:12:07.929Z,1.00
2018-02-13T08:13:11.946Z,1.00
2018-02-13T08:14:15.138Z,1.00
2018-02-13T08:15:18.365Z,1.00
2018-02-13T08:16:21.611Z,1.10
2018-02-13T08:17:24.821Z,1.10
2018-02-13T08:18:28.056Z,1.10
2018-02-13T08:19:32.040Z,1.20
2018-02-13T08:20:36.019Z,1.30
2018-02-13T08:21:39.255Z,1.30
2018-02-13T08:22:42.477Z,1.50
2018-02-13T08:23:45.752Z,1.60
2018-02-13T08:24:48.981Z,1.60
2018-02-13T08:25:52.967Z,1.90
2018-02-13T08:26:56.953Z,2.10
2018-02-13T08:28:00.184Z,2.00
2018-02-13T08:29:03.427Z,2.20
2018-02-13T08:30:06.644Z,2.30
2018-02-13T08:31:09.866Z,2.20
2018-02-13T08:32:13.091Z,2.30
2018-02-13T08:33:16.310Z,2.30
2018-02-13T08:34:19.524Z,2.30
2018-02-13T08:35:24.285Z,2.40
2018-02-13T08:36:27.521Z,2.40
2018-02-13T08:37:30.758Z,2.30
2018-02-13T08:38:33.984Z,2.40
2018-02-13T08:39:37.226Z,2.40
2018-02-13T08:40:40.441Z,2.60
2018-02-13T08:41:43.653Z,2.70
2018-02-13T08:42:46.928Z,2.80
2018-02-13T08:43:50.149Z,2.90
2018-02-13T08:44:53.377Z,2.90
2018-02-13T08:45:56.600Z,2.90
2018-02-13T08:47:00.581Z,3.00
2018-02-13T08:48:03.821Z,3.00
2018-02-13T08:49:07.068Z,3.10
2018-02-13T08:50:10.272Z,3.00
2018-02-13T08:51:13.508Z,3.10
2018-02-13T08:52:16.741Z,3.00
2018-02-13T08:53:19.964Z,3.00
2018-02-13T08:54:23.198Z,3.00
2018-02-13T08:55:27.173Z,3.00
2018-02-13T08:56:31.145Z,3.00
2018-02-13T08:57:34.376Z,3.00
2018-02-13T08:58:37.595Z,2.90
2018-02-13T08:59:40.829Z,2.90
2018-02-13T09:00:44.019Z,2.90
2018-02-13T09:01:48.041Z,2.90
2018-02-13T09:02:51.292Z,2.90
2018-02-13T09:03:55.277Z,3.00
2018-02-13T09:04:58.505Z,3.00
2018-02-13T09:06:01.766Z,3.00
2018-02-13T09:07:05.075Z,3.00
2018-02-13T09:08:08.303Z,2.90
2018-02-13T09:09:11.552Z,2.90
2018-02-13T09:10:15.824Z,2.70
2018-02-13T09:11:19.172Z,2.70
2018-02-13T09:12:22.483Z,2.70
2018-02-13T09:13:25.674Z,2.80
2018-02-13T09:14:29.664Z,2.90
2018-02-13T09:15:32.878Z,2.90
2018-02-13T09:16:36.109Z,3.00
2018-02-13T09:17:39.324Z,3.00
2018-02-13T09:18:43.314Z,3.00
2018-02-13T09:19:46.505Z,3.00
2018-02-13T09:20:50.502Z,2.80
2018-02-13T09:21:53.734Z,2.80
2018-02-13T09:22:56.936Z,2.70
2018-02-13T09:24:00.171Z,2.70
2018-02-13T09:25:04.157Z,2.80
2018-02-13T09:26:08.124Z,2.80
2018-02-13T09:27:11.371Z,2.80
2018-02-13T09:28:14.627Z,3.00
2018-02-13T09:29:18.605Z,3.10
2018-02-13T09:30:21.878Z,3.10
2018-02-13T09:31:25.108Z,3.20
2018-02-13T09:32:28.353Z,3.20
2018-02-13T09:33:31.789Z,3.20
2018-02-13T09:34:35.766Z,2.90
2018-02-13T09:35:39.734Z,2.80
2018-02-13T09:36:43.001Z,2.90
2018-02-13T09:37:46.233Z,2.80
2018-02-13T09:38:50.266Z,2.80
2018-02-13T09:39:53.494Z,2.80
2018-02-13T09:40:56.721Z,2.80
2018-02-13T09:41:59.976Z,2.80
2018-02-13T09:43:03.972Z,2.60
2018-02-13T09:44:07.205Z,2.60
2018-02-13T09:45:10.689Z,2.60
2018-02-13T09:46:13.918Z,2.60
2018-02-13T09:47:17.187Z,2.60
2018-02-13T09:48:20.373Z,2.60
2018-02-13T09:49:23.808Z,2.60
2018-02-13T09:50:27.828Z,2.60
2018-02-13T09:51:31.076Z,2.60
2018-02-13T09:52:35.185Z,2.70
2018-02-13T09:53:39.219Z,2.80
2018-02-13T09:54:42.477Z,2.70
2018-02-13T09:55:45.798Z,2.80
2018-02-13T09:56:49.141Z,2.80
2018-02-13T09:57:52.426Z,2.80
2018-02-13T09:58:55.768Z,2.90
2018-02-13T09:59:59.033Z,3.00
2018-02-13T10:01:02.223Z,3.20
2018-02-13T10:02:05.468Z,3.20
2018-02-13T10:03:09.508Z,3.50
2018-02-13T10:04:12.753Z,3.50
2018-02-13T10:05:15.968Z,3.40
2018-02-13T10:06:19.247Z,3.40
2018-02-13T10:07:22.471Z,3.30
2018-02-13T10:08:25.704Z,3.30
2018-02-13T10:09:28.955Z,3.20
2018-02-13T10:10:32.949Z,3.00
2018-02-13T10:11:36.973Z,3.00
2018-02-13T10:12:40.221Z,3.00
2018-02-13T10:13:43.449Z,3.10
2018-02-13T10:14:46.653Z,3.10
2018-02-13T10:15:49.907Z,3.00
2018-02-13T10:16:53.108Z,3.10
2018-02-13T10:17:56.388Z,3.00
2018-02-13T10:18:59.639Z,3.00
2018-02-13T10:20:02.853Z,3.00
2018-02-13T10:21:06.100Z,2.90
2018-02-13T10:22:10.130Z,3.00
2018-02-13T10:23:13.607Z,2.90
2018-02-13T10:24:16.876Z,3.00
2018-02-13T10:25:20.948Z,2.90
2018-02-13T10:26:24.189Z,2.90
2018-02-13T10:27:27.411Z,2.90
2018-02-13T10:28:31.957Z,2.90
2018-02-13T10:29:35.940Z,3.10
2018-02-13T10:30:39.218Z,3.10
2018-02-13T10:31:43.232Z,3.10
2018-02-13T10:32:46.474Z,3.10
2018-02-13T10:33:49.674Z,3.10
2018-02-13T10:34:52.883Z,3.10
2018-02-13T10:35:56.882Z,3.10
2018-02-13T10:37:00.961Z,3.10
2018-02-13T10:38:04.198Z,3.10
2018-02-13T10:39:07.444Z,3.20
2018-02-13T10:40:10.683Z,3.30
2018-02-13T10:41:13.934Z,3.40
2018-02-13T10:42:17.239Z,3.40
2018-02-13T10:43:20.465Z,3.40
2018-02-13T10:44:23.685Z,3.50
2018-02-13T10:45:26.902Z,3.40
2018-02-13T10:46:30.112Z,3.60
2018-02-13T10:47:34.192Z,3.60
2018-02-13T10:48:37.397Z,3.60
2018-02-13T10:49:40.609Z,3.60
2018-02-13T10:50:43.836Z,3.60
2018-02-13T10:51:47.068Z,3.80
2018-02-13T10:52:50.303Z,3.90
2018-02-13T10:53:53.520Z,3.90
2018-02-13T10:54:57.490Z,4.10
2018-02-13T10:56:00.701Z,4.00
2018-02-13T10:57:04.841Z,4.10
2018-02-13T10:58:08.058Z,4.10
2018-02-13T10:59:11.268Z,4.30
2018-02-13T11:00:15.262Z,4.40
2018-02-13T11:01:24.076Z,4.40
2018-02-13T11:02:27.289Z,4.40
2018-02-13T11:03:30.563Z,4.30
2018-02-13T11:04:34.565Z,4.20
2018-02-13T11:05:38.554Z,4.20
2018-02-13T11:06:42.534Z,4.30
2018-02-13T11:07:45.752Z,4.30
2018-02-13T11:08:49.730Z,4.10
2018-02-13T11:09:53.719Z,3.90
2018-02-13T11:10:56.930Z,3.90
2018-02-13T11:12:00.901Z,3.70
2018-02-13T11:13:04.132Z,3.70
2018-02-13T11:14:07.330Z,3.60
2018-02-13T11:15:10.545Z,3.60
2018-02-13T11:16:13.758Z,3.50
2018-02-13T11:17:17.742Z,3.50
2018-02-13T11:18:21.007Z,3.50
2018-02-13T11:19:24.267Z,3.50
2018-02-13T11:20:27.492Z,3.60
2018-02-13T11:21:30.812Z,3.60
2018-02-13T11:22:34.045Z,3.60
2018-02-13T11:23:37.259Z,3.70
2018-02-13T11:24:41.244Z,3.90
2018-02-13T11:25:45.220Z,3.90
2018-02-13T11:26:48.427Z,3.90
2018-02-13T11:27:51.632Z,3.90
2018-02-13T11:28:54.920Z,3.90
2018-02-13T11:29:58.921Z,4.00
2018-02-13T11:31:02.123Z,3.90
2018-02-13T11:32:05.361Z,4.00
2018-02-13T11:33:08.668Z,4.00
2018-02-13T11:34:11.881Z,3.90
2018-02-13T11:36:24.787Z,3.80
2018-02-13T11:37:28.021Z,3.90
2018-02-13T11:38:31.217Z,3.80
2018-02-13T11:39:35.202Z,3.60
2018-02-13T11:40:38.419Z,3.60
2018-02-13T11:41:41.621Z,3.60
2018-02-13T11:42:44.856Z,3.70
2018-02-13T11:43:48.842Z,3.60
2018-02-13T11:44:52.049Z,3.60
2018-02-13T11:45:56.081Z,3.60
2018-02-13T11:46:59.268Z,3.60
2018-02-13T11:48:02.494Z,3.60
2018-02-13T11:49:05.709Z,3.70
2018-02-13T11:50:08.918Z,3.80
2018-02-13T11:51:12.164Z,3.90
2018-02-13T11:52:16.130Z,3.90
2018-02-13T11:53:19.406Z,3.90
2018-02-13T11:54:22.640Z,4.00
2018-02-13T11:55:25.969Z,4.00
2018-02-13T11:56:29.345Z,4.00
2018-02-13T11:57:32.648Z,4.10
2018-02-13T11:58:35.850Z,4.20
2018-02-13T11:59:39.836Z,4.20
2018-02-13T12:00:43.053Z,4.20
2018-02-13T12:01:47.035Z,4.20
2018-02-13T12:02:50.277Z,4.20
2018-02-13T12:03:53.506Z,4.20
2018-02-13T12:04:56.717Z,4.20
2018-02-13T12:05:59.912Z,4.10
2018-02-13T12:07:03.122Z,4.10
2018-02-13T12:08:06.361Z,4.20
2018-02-13T12:09:09.543Z,4.10
2018-02-13T12:10:12.779Z,4.10
2018-02-13T12:11:15.985Z,4.10
2018-02-13T12:12:19.953Z,4.00
2018-02-13T12:13:23.173Z,4.00
2018-02-13T12:14:27.152Z,3.90
2018-02-13T12:15:30.366Z,3.90
2018-02-13T12:16:34.357Z,4.00
2018-02-13T12:17:38.373Z,4.00
2018-02-13T12:18:41.594Z,3.90
2018-02-13T12:19:44.818Z,4.00
2018-02-13T12:20:48.029Z,4.10
2018-02-13T12:21:51.216Z,4.00
2018-02-13T12:22:54.431Z,4.10
2018-02-13T12:23:57.913Z,4.10
2018-02-13T12:25:01.155Z,4.10
2018-02-13T12:26:04.364Z,4.10
2018-02-13T12:27:07.607Z,4.20
2018-02-13T12:28:11.613Z,4.20
2018-02-13T12:29:14.846Z,4.20
2018-02-13T12:30:18.108Z,4.10
2018-02-13T12:31:21.335Z,4.10
2018-02-13T12:32:24.539Z,4.00
2018-02-13T12:33:28.557Z,4.10
2018-02-13T12:34:31.790Z,4.10
2018-02-13T12:35:35.005Z,4.10
2018-02-13T12:36:39.001Z,4.10
2018-02-13T12:37:42.980Z,4.00
2018-02-13T12:38:46.184Z,3.90
2018-02-13T12:39:50.168Z,3.80
2018-02-13T12:40:53.449Z,3.80
2018-02-13T12:41:56.842Z,4.00
2018-02-13T12:43:00.084Z,4.00
2018-02-13T12:44:03.337Z,3.90
2018-02-13T12:45:06.541Z,4.10
2018-02-13T12:46:09.752Z,4.10
2018-02-13T12:47:12.968Z,4.20
2018-02-13T12:48:16.937Z,4.20
2018-02-13T12:49:20.152Z,4.20
2018-02-13T12:50:24.153Z,4.20
2018-02-13T12:51:28.229Z,4.30
2018-02-13T12:52:31.508Z,4.30
2018-02-13T12:53:34.721Z,4.30
2018-02-13T12:54:38.766Z,4.50
2018-02-13T12:55:41.980Z,4.40
2018-02-13T12:56:45.201Z,4.50
2018-02-13T12:57:49.244Z,4.70
2018-02-13T12:58:52.460Z,4.70
2018-02-13T12:59:56.446Z,4.80
2018-02-13T13:00:59.653Z,4.80
2018-02-13T13:02:03.655Z,4.70
2018-02-13T13:03:06.884Z,4.70
2018-02-13T13:04:10.092Z,4.70
2018-02-13T13:06:22.993Z,4.40
2018-02-13T13:07:26.217Z,4.30
2018-02-13T13:08:30.187Z,4.40
2018-02-13T13:09:33.427Z,4.40
2018-02-13T13:10:36.647Z,4.40
2018-02-13T13:11:39.852Z,4.50
2018-02-13T13:12:43.092Z,4.60
2018-02-13T13:13:46.283Z,4.70
2018-02-13T13:14:49.488Z,4.80
2018-02-13T13:15:52.722Z,5.00
2018-02-13T13:16:55.937Z,5.10
2018-02-13T13:17:59.163Z,5.20
2018-02-13T13:19:03.147Z,5.50
2018-02-13T13:20:06.364Z,5.50
2018-02-13T13:21:09.679Z,5.50
2018-02-13T13:22:12.877Z,5.60
2018-02-13T13:23:16.108Z,5.50
2018-02-13T13:24:19.396Z,5.50
2018-02-13T13:25:22.815Z,5.50
2018-02-13T13:26:26.122Z,5.50
2018-02-13T13:27:29.354Z,5.70
2018-02-13T13:28:32.676Z,5.90
2018-02-13T13:29:35.937Z,6.00
2018-02-13T13:30:39.198Z,6.20
2018-02-13T13:31:42.476Z,6.20
2018-02-13T13:32:46.483Z,6.00
2018-02-13T13:33:50.506Z,5.80
2018-02-13T13:34:53.741Z,5.90
2018-02-13T13:35:57.730Z,6.00
2018-02-13T13:37:01.760Z,6.10
2018-02-13T13:38:05.054Z,6.00
2018-02-13T13:39:09.014Z,6.00
2018-02-13T13:40:12.298Z,6.10
2018-02-13T13:41:15.765Z,6.10
2018-02-13T13:42:19.048Z,6.10
2018-02-13T13:43:22.238Z,6.40
2018-02-13T13:44:25.497Z,6.50
2018-02-13T13:45:28.748Z,6.70
2018-02-13T13:46:32.032Z,6.80
2018-02-13T13:47:36.065Z,6.80
2018-02-13T13:48:39.270Z,6.70
2018-02-13T13:49:42.476Z,6.90
2018-02-13T13:50:46.488Z,7.10
2018-02-13T13:51:50.480Z,7.10
2018-02-13T13:52:53.681Z,7.10
2018-02-13T13:53:56.945Z,7.00
2018-02-13T13:55:00.937Z,7.20
2018-02-13T13:56:04.210Z,7.30
2018-02-13T13:57:07.493Z,7.20
2018-02-13T13:58:10.791Z,7.50
2018-02-13T13:59:13.985Z,7.40
2018-02-13T14:00:17.970Z,7.40
2018-02-13T14:01:21.199Z,7.40